createdAt,value
2023-04-04T00:00:48.298Z,0.20
2023-04-04T00:01:50.398Z,0.50
2023-04-04T00:02:52.342Z,0.40
2023-04-04T00:03:54.496Z,0.37
2023-04-04T00:04:56.568Z,0.30
2023-04-04T00:05:58.390Z,0.30
2023-04-04T00:07:00.438Z,0.30
2023-04-04T00:08:06.107Z,0.30
2023-04-04T00:09:08.138Z,0.40
2023-04-04T00:10:10.343Z,0.20
2023-04-04T00:11:12.952Z,0.40
2023-04-04T00:12:16.200Z,0.27
2023-04-04T00:13:18.059Z,0.30
2023-04-04T00:14:20.095Z,0.23
2023-04-04T00:15:22.139Z,0.40
2023-04-04T00:16:24.158Z,0.30
2023-04-04T00:17:26.154Z,0.40
2023-04-04T00:18:28.035Z,0.30
2023-04-04T00:19:29.804Z,0.30
2023-04-04T00:20:32.054Z,0.40
2023-04-04T00:21:33.901Z,0.50
2023-04-04T00:22:35.788Z,0.20
2023-04-04T00:23:37.898Z,0.30
2023-04-04T00:24:40.536Z,0.30
2023-04-04T00:25:42.386Z,0.20
2023-04-04T00:26:44.218Z,0.23
2023-04-04T00:27:47.852Z,0.30
2023-04-04T00:28:49.611Z,0.50
2023-04-04T00:29:51.493Z,0.40
2023-04-04T00:30:53.396Z,0.30
2023-04-04T00:31:55.396Z,0.37
2023-04-04T00:32:58.234Z,0.30
2023-04-04T00:34:00.175Z,0.43
2023-04-04T00:35:02.232Z,0.40
2023-04-04T00:36:04.651Z,0.20
2023-04-04T00:37:07.457Z,0.40
2023-04-04T00:38:09.490Z,0.40
2023-04-04T00:39:11.475Z,0.30
2023-04-04T00:40:13.576Z,0.30
2023-04-04T00:41:16.759Z,0.40
2023-04-04T00:42:18.696Z,0.40
2023-04-04T00:43:20.604Z,0.30
2023-04-04T00:44:22.439Z,0.40
2023-04-04T00:45:24.564Z,0.37
2023-04-04T00:46:29.296Z,0.50
2023-04-04T00:47:34.125Z,0.47
2023-04-04T00:48:36.484Z,0.40
2023-04-04T00:49:38.312Z,0.30
2023-04-04T00:50:40.912Z,0.40
2023-04-04T00:51:42.954Z,0.30
2023-04-04T00:52:44.859Z,0.20
2023-04-04T00:53:48.243Z,0.20
2023-04-04T00:54:50.630Z,0.37
2023-04-04T00:55:52.533Z,0.50
2023-04-04T00:56:55.344Z,0.30
2023-04-04T00:57:59.641Z,0.60
2023-04-04T00:59:01.940Z,0.30
2023-04-04T01:00:06.501Z,0.20
2023-04-04T01:01:10.901Z,0.40
2023-04-04T01:02:12.826Z,0.40
2023-04-04T01:03:14.793Z,0.37
2023-04-04T01:04:17.096Z,0.30
2023-04-04T01:05:19.063Z,0.30
2023-04-04T01:06:21.477Z,0.40
2023-04-04T01:07:23.700Z,0.40
2023-04-04T01:08:29.656Z,0.23
2023-04-04T01:09:31.953Z,0.30
2023-04-04T01:10:34.758Z,0.37
2023-04-04T01:11:36.582Z,0.10
2023-04-04T01:12:39.468Z,0.30
2023-04-04T01:13:43.285Z,0.40
2023-04-04T01:14:45.097Z,0.50
2023-04-04T01:15:47.586Z,0.37
2023-04-04T01:16:53.188Z,0.30
2023-04-04T01:18:00.093Z,0.40
2023-04-04T01:19:06.643Z,0.10
2023-04-04T01:20:15.753Z,0.30
2023-04-04T01:21:21.665Z,0.20
2023-04-04T01:22:24.255Z,0.30
2023-04-04T01:23:49.770Z,0.33
2023-04-04T01:24:55.541Z,0.20
2023-04-04T01:26:03.618Z,0.27
2023-04-04T01:27:05.720Z,0.30
2023-04-04T01:28:07.615Z,0.30
2023-04-04T01:29:09.465Z,0.23
2023-04-04T01:30:13.946Z,0.40
2023-04-04T01:31:26.830Z,0.40
2023-04-04T01:32:57.473Z,0.40
2023-04-04T01:34:21.117Z,0.30
2023-04-04T01:36:38.721Z,0.33
2023-04-04T01:38:02.441Z,0.30
2023-04-04T01:39:21.278Z,0.20
2023-04-04T01:40:34.986Z,0.40
2023-04-04T01:41:37.810Z,0.20
2023-04-04T01:42:42.217Z,0.20
2023-04-04T01:43:47.590Z,0.20
2023-04-04T01:44:57.101Z,0.27
2023-04-04T01:46:02.724Z,0.30
2023-04-04T01:47:08.841Z,0.30
2023-04-04T01:48:11.297Z,0.20
2023-04-04T01:49:13.084Z,0.50
2023-04-04T01:50:16.226Z,0.40
2023-04-04T01:51:18.231Z,0.30
2023-04-04T01:52:20.029Z,0.30
2023-04-04T01:53:22.019Z,0.40
2023-04-04T01:54:24.102Z,0.37
2023-04-04T01:55:26.026Z,0.40
2023-04-04T01:56:27.907Z,0.30
2023-04-04T01:57:30.900Z,0.20
2023-04-04T01:58:32.727Z,0.30
2023-04-04T01:59:34.555Z,0.57
2023-04-04T02:00:36.374Z,0.43
2023-04-04T02:01:38.634Z,0.20
2023-04-04T02:02:40.610Z,0.20
2023-04-04T02:03:42.538Z,0.40
2023-04-04T02:04:44.406Z,0.27
2023-04-04T02:05:46.337Z,0.20
2023-04-04T02:06:48.163Z,0.30
2023-04-04T02:07:52.791Z,0.40
2023-04-04T02:08:56.132Z,0.20
2023-04-04T02:09:58.617Z,0.30
2023-04-04T02:11:00.654Z,0.20
2023-04-04T02:12:02.530Z,0.20
2023-04-04T02:13:04.380Z,0.23
2023-04-04T02:14:06.216Z,0.40
2023-04-04T02:15:08.846Z,0.20
2023-04-04T02:16:11.197Z,0.50
2023-04-04T02:17:12.986Z,0.30
2023-04-04T02:18:15.189Z,0.30
2023-04-04T02:19:17.112Z,0.20
2023-04-04T02:20:19.590Z,0.30
2023-04-04T02:21:21.437Z,0.20
2023-04-04T02:22:23.471Z,0.30
2023-04-04T02:23:25.669Z,0.20
2023-04-04T02:24:27.512Z,0.33
2023-04-04T02:25:29.520Z,0.40
2023-04-04T02:26:31.418Z,0.20
2023-04-04T02:27:33.215Z,0.30
2023-04-04T02:28:35.071Z,0.30
2023-04-04T02:29:37.263Z,0.23
2023-04-04T02:30:39.346Z,0.50
2023-04-04T02:31:41.344Z,0.50
2023-04-04T02:32:44.785Z,0.23
2023-04-04T02:33:46.577Z,0.30
2023-04-04T02:34:48.493Z,0.23
2023-04-04T02:35:50.398Z,0.43
2023-04-04T02:36:52.297Z,0.30
2023-04-04T02:37:54.097Z,0.23
2023-04-04T02:38:56.098Z,0.30
2023-04-04T02:39:58.047Z,0.30
2023-04-04T02:40:59.808Z,0.30
2023-04-04T02:42:01.555Z,0.20
2023-04-04T02:43:03.388Z,0.30
2023-04-04T02:44:05.262Z,0.30
2023-04-04T02:45:08.135Z,0.30
2023-04-04T02:46:20.561Z,0.40
2023-04-04T02:47:23.671Z,0.30
2023-04-04T02:48:25.821Z,0.30
2023-04-04T02:49:29.640Z,0.20
2023-04-04T02:50:31.448Z,0.13
2023-04-04T02:51:33.547Z,0.20
2023-04-04T02:52:35.453Z,0.30
2023-04-04T02:53:37.280Z,0.10
2023-04-04T02:54:39.063Z,0.20
2023-04-04T02:55:41.018Z,0.23
2023-04-04T02:56:42.800Z,0.20
2023-04-04T02:57:52.558Z,0.20
2023-04-04T02:58:54.428Z,0.10
2023-04-04T02:59:56.687Z,0.30
2023-04-04T03:00:58.586Z,0.23
2023-04-04T03:02:00.635Z,0.40
2023-04-04T03:03:02.755Z,0.20
2023-04-04T03:04:05.672Z,0.30
2023-04-04T03:05:08.080Z,0.30
2023-04-04T03:06:09.899Z,0.30
2023-04-04T03:07:12.622Z,0.30
2023-04-04T03:08:14.367Z,0.37
2023-04-04T03:09:17.234Z,0.30
2023-04-04T03:10:19.048Z,0.13
2023-04-04T03:11:21.509Z,0.20
2023-04-04T03:12:23.470Z,0.30
2023-04-04T03:13:25.240Z,0.20
2023-04-04T03:14:27.148Z,0.20
2023-04-04T03:15:29.072Z,0.20
2023-04-04T03:16:31.094Z,0.30
2023-04-04T03:17:33.205Z,0.27
2023-04-04T03:18:35.190Z,0.20
2023-04-04T03:19:37.079Z,0.20
2023-04-04T03:20:39.102Z,0.40
2023-04-04T03:21:41.122Z,0.40
2023-04-04T03:22:42.915Z,0.30
2023-04-04T03:23:44.825Z,0.20
2023-04-04T03:24:46.656Z,0.20
2023-04-04T03:25:48.455Z,0.30
2023-04-04T03:26:50.366Z,0.33
2023-04-04T03:27:52.394Z,0.20
2023-04-04T03:28:54.191Z,0.40
2023-04-04T03:29:56.002Z,0.20
2023-04-04T03:30:57.789Z,0.50
2023-04-04T03:31:59.750Z,0.20
2023-04-04T03:33:10.569Z,0.27
2023-04-04T03:34:12.604Z,0.10
2023-04-04T03:35:14.451Z,0.50
2023-04-04T03:36:16.710Z,0.40
2023-04-04T03:37:19.292Z,0.30
2023-04-04T03:38:21.067Z,0.30
2023-04-04T03:39:27.662Z,0.20
2023-04-04T03:40:29.855Z,0.20
2023-04-04T03:41:31.685Z,0.20
2023-04-04T03:42:34.844Z,0.30
2023-04-04T03:43:37.342Z,0.30
2023-04-04T03:44:42.669Z,0.20
2023-04-04T03:46:04.215Z,0.20
2023-04-04T03:47:06.107Z,0.20
2023-04-04T03:48:10.173Z,0.30
2023-04-04T03:49:12.084Z,0.23
2023-04-04T03:50:13.965Z,0.20
2023-04-04T03:51:23.233Z,0.40
2023-04-04T03:52:25.033Z,0.30
2023-04-04T03:53:28.333Z,0.30
2023-04-04T03:54:30.196Z,0.30
2023-04-04T03:55:33.954Z,0.30
2023-04-04T03:56:48.837Z,0.30
2023-04-04T03:57:53.895Z,0.30
2023-04-04T03:58:56.512Z,0.30
2023-04-04T03:59:58.590Z,0.37
2023-04-04T04:01:00.572Z,0.73
2023-04-04T04:02:03.098Z,1.00
2023-04-04T04:03:05.203Z,0.73
2023-04-04T04:04:07.231Z,0.70
2023-04-04T04:05:09.396Z,0.70
2023-04-04T04:06:11.734Z,0.77
2023-04-04T04:07:13.577Z,0.80
2023-04-04T04:08:15.837Z,0.60
2023-04-04T04:09:17.724Z,0.60
2023-04-04T04:10:55.935Z,0.50
2023-04-04T04:12:17.826Z,0.50
2023-04-04T04:13:34.979Z,0.30
2023-04-04T04:14:37.376Z,0.37
2023-04-04T04:15:39.277Z,0.33
2023-04-04T04:16:41.545Z,0.53
2023-04-04T04:17:44.569Z,0.47
2023-04-04T04:18:46.485Z,0.40
2023-04-04T04:19:58.841Z,0.30
2023-04-04T04:21:02.656Z,0.40
2023-04-04T04:22:04.493Z,0.30
2023-04-04T04:23:06.772Z,0.40
2023-04-04T04:24:12.125Z,0.30
2023-04-04T04:25:17.820Z,0.30
2023-04-04T04:26:19.787Z,0.30
2023-04-04T04:27:24.721Z,0.20
2023-04-04T04:28:33.985Z,0.60
2023-04-04T04:29:36.767Z,0.40
2023-04-04T04:30:38.880Z,0.23
2023-04-04T04:31:41.736Z,0.20
2023-04-04T04:32:44.746Z,0.27
2023-04-04T04:33:46.622Z,0.40
2023-04-04T04:34:49.026Z,0.20
2023-04-04T04:35:50.959Z,0.40
2023-04-04T04:36:54.370Z,0.30
2023-04-04T04:37:57.797Z,0.20
2023-04-04T04:38:59.689Z,0.30
2023-04-04T04:40:01.886Z,0.30
2023-04-04T04:41:05.135Z,0.30
2023-04-04T04:42:07.025Z,0.17
2023-04-04T04:43:08.850Z,0.30
2023-04-04T04:44:10.664Z,0.40
2023-04-04T04:45:12.717Z,0.33
2023-04-04T04:46:15.121Z,0.20
2023-04-04T04:47:16.956Z,0.30
2023-04-04T04:48:21.234Z,0.40
2023-04-04T04:49:23.071Z,0.20
2023-04-04T04:50:24.987Z,0.50
2023-04-04T04:51:27.335Z,0.27
2023-04-04T04:52:31.767Z,0.20
2023-04-04T04:53:34.151Z,0.20
2023-04-04T04:54:35.997Z,0.30
2023-04-04T04:55:38.006Z,0.20
2023-04-04T04:56:40.078Z,0.23
2023-04-04T04:57:42.607Z,0.40
2023-04-04T04:58:45.507Z,0.40
2023-04-04T04:59:47.981Z,0.30
2023-04-04T05:00:50.053Z,0.30
2023-04-04T05:01:51.989Z,0.30
2023-04-04T05:02:56.561Z,0.30
2023-04-04T05:03:59.051Z,0.37
2023-04-04T05:05:01.809Z,0.30
2023-04-04T05:06:03.958Z,0.30
2023-04-04T05:07:08.210Z,0.30
2023-04-04T05:08:10.338Z,0.30
2023-04-04T05:09:12.092Z,0.50
2023-04-04T05:10:14.065Z,0.30
2023-04-04T05:11:16.225Z,0.30
2023-04-04T05:12:18.897Z,0.50
2023-04-04T05:13:21.005Z,0.20
2023-04-04T05:14:22.935Z,0.27
2023-04-04T05:15:31.548Z,0.23
2023-04-04T05:16:33.590Z,0.40
2023-04-04T05:17:40.704Z,0.30
2023-04-04T05:18:42.557Z,0.40
2023-04-04T05:19:44.839Z,0.30
2023-04-04T05:20:54.736Z,0.20
2023-04-04T05:21:56.649Z,0.33
2023-04-04T05:22:58.534Z,0.30
2023-04-04T05:24:00.907Z,0.30
2023-04-04T05:25:03.306Z,0.40
2023-04-04T05:26:05.228Z,0.40
2023-04-04T05:27:07.002Z,0.30
2023-04-04T05:28:09.031Z,0.30
2023-04-04T05:29:11.257Z,0.20
2023-04-04T05:30:13.288Z,0.33
2023-04-04T05:31:15.084Z,0.20
2023-04-04T05:32:16.986Z,0.30
2023-04-04T05:33:18.819Z,0.30
2023-04-04T05:34:20.621Z,0.50
2023-04-04T05:35:22.724Z,0.20
2023-04-04T05:36:24.965Z,0.20
2023-04-04T05:37:27.633Z,0.30
2023-04-04T05:38:29.571Z,0.20
2023-04-04T05:39:32.599Z,0.30
2023-04-04T05:40:34.507Z,0.30
2023-04-04T05:41:36.544Z,0.33
2023-04-04T05:42:38.805Z,0.30
2023-04-04T05:43:42.887Z,0.40
2023-04-04T05:44:44.746Z,0.30
2023-04-04T05:45:46.640Z,0.13
2023-04-04T05:46:48.731Z,0.47
2023-04-04T05:47:50.645Z,0.30
2023-04-04T05:48:52.549Z,0.20
2023-04-04T05:49:54.422Z,0.10
2023-04-04T05:50:56.481Z,0.30
2023-04-04T05:51:58.363Z,0.40
2023-04-04T05:53:00.166Z,0.17
2023-04-04T05:54:01.956Z,0.33
2023-04-04T05:55:04.118Z,0.57
2023-04-04T05:56:06.260Z,0.30
2023-04-04T05:57:08.536Z,0.30
2023-04-04T05:58:11.797Z,0.10
2023-04-04T05:59:14.760Z,0.33
2023-04-04T06:00:18.268Z,0.33
2023-04-04T06:01:20.274Z,0.40
2023-04-04T06:02:22.193Z,0.30
2023-04-04T06:03:24.244Z,0.30
2023-04-04T06:04:26.154Z,0.23
2023-04-04T06:05:29.427Z,0.30
2023-04-04T06:06:31.340Z,0.30
2023-04-04T06:07:33.197Z,0.20
2023-04-04T06:08:50.170Z,0.47
2023-04-04T06:09:52.303Z,0.40
2023-04-04T06:10:55.972Z,0.30
2023-04-04T06:11:57.770Z,0.23
2023-04-04T06:13:00.235Z,0.37
2023-04-04T06:14:02.196Z,0.60
2023-04-04T06:15:04.499Z,0.50
2023-04-04T06:16:06.921Z,0.60
2023-04-04T06:17:08.821Z,0.70
2023-04-04T06:18:11.090Z,1.00
2023-04-04T06:19:13.680Z,1.00
2023-04-04T06:20:15.741Z,1.20
2023-04-04T06:21:17.525Z,0.70
2023-04-04T06:22:19.327Z,1.30
2023-04-04T06:23:21.307Z,1.60
2023-04-04T06:24:23.134Z,1.73
2023-04-04T06:25:26.886Z,1.83
2023-04-04T06:26:28.772Z,1.90
2023-04-04T06:27:30.617Z,2.13
2023-04-04T06:28:32.592Z,1.80
2023-04-04T06:29:34.592Z,2.50
2023-04-04T06:30:38.141Z,2.30
2023-04-04T06:31:40.702Z,2.23
2023-04-04T06:32:42.868Z,2.10
2023-04-04T06:33:44.674Z,2.10
2023-04-04T06:34:46.713Z,2.03
2023-04-04T06:35:48.574Z,2.07
2023-04-04T06:36:50.461Z,2.20
2023-04-04T06:37:56.025Z,2.00
2023-04-04T06:38:58.047Z,2.20
2023-04-04T06:39:59.827Z,2.03
2023-04-04T06:41:01.654Z,2.17
2023-04-04T06:42:03.630Z,1.97
2023-04-04T06:43:05.564Z,1.90
2023-04-04T06:44:07.509Z,1.90
2023-04-04T06:45:09.673Z,2.30
2023-04-04T06:46:11.610Z,2.00
2023-04-04T06:47:14.656Z,1.80
2023-04-04T06:48:16.856Z,1.67
2023-04-04T06:49:18.901Z,1.80
2023-04-04T06:50:22.909Z,1.70
2023-04-04T06:51:25.293Z,2.03
2023-04-04T06:52:27.366Z,1.50
2023-04-04T06:53:30.301Z,1.77
2023-04-04T06:54:32.302Z,2.10
2023-04-04T06:55:35.068Z,1.60
2023-04-04T06:56:39.850Z,1.97
2023-04-04T06:57:42.039Z,1.70
2023-04-04T06:58:44.227Z,1.90
2023-04-04T06:59:46.089Z,1.40
2023-04-04T07:00:47.901Z,1.73
2023-04-04T07:01:49.783Z,1.90
2023-04-04T07:02:59.324Z,1.90
2023-04-04T07:04:01.384Z,1.47
2023-04-04T07:05:04.537Z,1.53
2023-04-04T07:06:06.430Z,1.37
2023-04-04T07:07:08.332Z,1.47
2023-04-04T07:08:10.888Z,1.50
2023-04-04T07:09:21.922Z,1.70
2023-04-04T07:10:30.569Z,1.57
2023-04-04T07:11:32.324Z,1.50
2023-04-04T07:12:34.484Z,1.60
2023-04-04T07:13:36.744Z,1.73
2023-04-04T07:14:39.864Z,1.70
2023-04-04T07:15:48.667Z,1.70
2023-04-04T07:16:52.329Z,1.50
2023-04-04T07:17:55.124Z,1.20
2023-04-04T07:18:56.969Z,1.70
2023-04-04T07:20:00.954Z,1.80
2023-04-04T07:21:07.185Z,1.27
2023-04-04T07:22:08.940Z,1.40
2023-04-04T07:23:13.566Z,1.50
2023-04-04T07:24:15.620Z,1.30
2023-04-04T07:25:17.518Z,1.37
2023-04-04T07:26:21.309Z,1.33
2023-04-04T07:27:23.062Z,1.27
2023-04-04T07:28:24.820Z,1.50
2023-04-04T07:29:26.702Z,1.17
2023-04-04T07:30:30.180Z,1.27
2023-04-04T07:31:32.659Z,1.60
2023-04-04T07:32:34.483Z,1.50
2023-04-04T07:33:37.580Z,1.40
2023-04-04T07:34:39.443Z,1.37
2023-04-04T07:35:41.260Z,1.40
2023-04-04T07:36:43.433Z,1.40
2023-04-04T07:37:45.776Z,1.40
2023-04-04T07:38:48.157Z,1.33
2023-04-04T07:39:50.034Z,1.10
2023-04-04T07:40:51.902Z,1.30
2023-04-04T07:41:54.121Z,1.70
2023-04-04T07:42:56.174Z,1.17
2023-04-04T07:43:57.976Z,1.33
2023-04-04T07:44:59.751Z,1.30
2023-04-04T07:46:01.929Z,1.47
2023-04-04T07:47:10.094Z,1.00
2023-04-04T07:48:12.305Z,1.20
2023-04-04T07:49:14.082Z,1.30
2023-04-04T07:50:16.823Z,1.43
2023-04-04T07:51:20.701Z,1.13
2023-04-04T07:52:22.511Z,1.40
2023-04-04T07:53:24.280Z,1.30
2023-04-04T07:54:27.720Z,1.50
2023-04-04T07:55:29.747Z,1.40
2023-04-04T07:56:31.643Z,1.07
2023-04-04T07:57:38.018Z,1.10
2023-04-04T07:58:39.873Z,1.00
2023-04-04T07:59:41.690Z,1.20
2023-04-04T08:00:43.451Z,1.10
2023-04-04T08:01:46.321Z,1.27
2023-04-04T08:02:59.056Z,1.20
2023-04-04T08:04:01.352Z,1.90
2023-04-04T08:05:04.136Z,1.20
2023-04-04T08:06:06.202Z,1.17
2023-04-04T08:07:08.081Z,1.13
2023-04-04T08:08:09.936Z,0.80
2023-04-04T08:09:11.851Z,1.17
2023-04-04T08:10:17.403Z,1.13
2023-04-04T08:11:19.218Z,0.80
2023-04-04T08:12:21.156Z,1.30
2023-04-04T08:13:23.225Z,0.80
2023-04-04T08:14:25.127Z,1.23
2023-04-04T08:15:27.416Z,1.20
2023-04-04T08:16:29.352Z,1.23
2023-04-04T08:17:31.317Z,1.20
2023-04-04T08:18:33.495Z,1.10
2023-04-04T08:19:35.485Z,1.10
2023-04-04T08:20:37.824Z,1.07
2023-04-04T08:21:39.920Z,1.03
2023-04-04T08:22:42.911Z,1.03
2023-04-04T08:23:45.346Z,1.20
2023-04-04T08:24:47.178Z,1.20
2023-04-04T08:25:49.085Z,1.10
2023-04-04T08:26:58.261Z,0.83
2023-04-04T08:28:06.857Z,0.97
2023-04-04T08:29:08.867Z,1.20
2023-04-04T08:30:15.399Z,0.97
2023-04-04T08:31:17.420Z,1.10
2023-04-04T08:32:19.242Z,1.00
2023-04-04T08:33:29.047Z,1.17
2023-04-04T08:34:36.364Z,1.30
2023-04-04T08:35:38.285Z,1.10
2023-04-04T08:36:40.989Z,1.40
2023-04-04T08:37:46.417Z,1.27
2023-04-04T08:38:48.615Z,1.10
2023-04-04T08:39:50.521Z,1.13
2023-04-04T08:40:53.532Z,1.20
2023-04-04T08:42:06.555Z,1.03
2023-04-04T08:43:10.418Z,1.07
2023-04-04T08:44:22.831Z,1.17
2023-04-04T08:45:28.050Z,1.37
2023-04-04T08:46:31.251Z,1.07
2023-04-04T08:47:36.222Z,1.30
2023-04-04T08:48:43.189Z,0.80
2023-04-04T08:49:49.457Z,0.97
2023-04-04T08:50:51.568Z,0.80
2023-04-04T08:51:57.237Z,0.97
2023-04-04T08:53:01.530Z,0.90
2023-04-04T08:54:04.120Z,1.10
2023-04-04T08:55:06.968Z,0.90
2023-04-04T08:56:10.098Z,1.10
2023-04-04T08:57:12.474Z,1.13
2023-04-04T08:58:14.867Z,1.00
2023-04-04T08:59:18.785Z,1.00
2023-04-04T09:00:22.758Z,0.80
2023-04-04T09:01:24.648Z,1.00
2023-04-04T09:02:33.254Z,0.90
2023-04-04T09:03:37.621Z,1.03
2023-04-04T09:04:41.941Z,0.90
2023-04-04T09:05:45.246Z,1.17
2023-04-04T09:06:48.321Z,0.97
2023-04-04T09:07:52.145Z,1.00
2023-04-04T09:08:54.577Z,1.20
2023-04-04T09:09:58.230Z,1.33
2023-04-04T09:11:03.713Z,1.00
2023-04-04T09:12:06.873Z,0.97
2023-04-04T09:13:15.551Z,1.20
2023-04-04T09:14:21.290Z,1.20
2023-04-04T09:15:23.395Z,0.90
2023-04-04T09:16:27.321Z,0.93
2023-04-04T09:17:29.898Z,1.30
2023-04-04T09:18:31.959Z,1.07
2023-04-04T09:19:34.082Z,1.00
2023-04-04T09:20:44.907Z,1.23
2023-04-04T09:21:51.262Z,1.00
2023-04-04T09:22:53.003Z,1.40
2023-04-04T09:24:02.297Z,1.13
2023-04-04T09:25:08.655Z,0.87
2023-04-04T09:26:12.301Z,1.20
2023-04-04T09:27:16.491Z,0.90
2023-04-04T09:28:19.891Z,1.23
2023-04-04T09:29:22.191Z,1.23
2023-04-04T09:30:25.083Z,1.23
2023-04-04T09:31:27.151Z,1.10
2023-04-04T09:32:29.263Z,1.00
2023-04-04T09:33:33.537Z,1.10
2023-04-04T09:34:36.508Z,1.00
2023-04-04T09:35:41.601Z,1.03
2023-04-04T09:36:45.831Z,1.07
2023-04-04T09:37:48.002Z,1.30
2023-04-04T09:38:54.443Z,0.97
2023-04-04T09:39:57.057Z,0.90
2023-04-04T09:40:59.079Z,1.10
2023-04-04T09:42:01.635Z,0.90
2023-04-04T09:43:07.899Z,1.03
2023-04-04T09:44:13.336Z,0.93
2023-04-04T09:45:22.373Z,1.10
2023-04-04T09:46:32.084Z,1.00
2023-04-04T09:47:33.997Z,0.90
2023-04-04T09:48:37.394Z,1.10
2023-04-04T09:49:40.129Z,1.00
2023-04-04T09:50:48.117Z,0.80
2023-04-04T09:51:56.723Z,0.83
2023-04-04T09:53:00.024Z,0.90
2023-04-04T09:54:03.020Z,1.07
2023-04-04T09:55:06.644Z,0.77
2023-04-04T09:56:09.183Z,0.80
2023-04-04T09:57:11.500Z,1.17
2023-04-04T09:58:16.977Z,0.90
2023-04-04T09:59:18.938Z,1.00
2023-04-04T10:00:21.114Z,1.30
2023-04-04T10:01:24.926Z,0.90
2023-04-04T10:02:30.274Z,0.83
2023-04-04T10:03:32.242Z,1.10
2023-04-04T10:04:35.829Z,1.23
2023-04-04T10:05:37.799Z,0.83
2023-04-04T10:06:39.757Z,1.13
2023-04-04T10:07:44.829Z,0.83
2023-04-04T10:08:47.550Z,1.00
2023-04-04T10:09:52.703Z,1.10
2023-04-04T10:11:11.921Z,0.97
2023-04-04T10:12:14.727Z,1.00
2023-04-04T10:13:31.369Z,0.93
2023-04-04T10:14:37.140Z,0.80
2023-04-04T10:15:39.182Z,0.97
2023-04-04T10:16:45.605Z,1.00
2023-04-04T10:17:49.628Z,1.13
2023-04-04T10:18:52.527Z,1.27
2023-04-04T10:19:55.081Z,1.00
2023-04-04T10:21:12.024Z,0.90
2023-04-04T10:22:20.402Z,1.10
2023-04-04T10:23:25.176Z,0.83
2023-04-04T10:24:27.106Z,0.80
2023-04-04T10:25:30.804Z,1.23
2023-04-04T10:26:32.654Z,0.77
2023-04-04T10:27:35.318Z,1.00
2023-04-04T10:28:37.661Z,0.90
2023-04-04T10:29:39.505Z,0.90
2023-04-04T10:31:03.185Z,0.60
2023-04-04T10:32:16.704Z,1.03
2023-04-04T10:34:04.621Z,0.60
2023-04-04T10:35:12.415Z,0.87
2023-04-04T10:36:18.135Z,0.77
2023-04-04T10:37:34.080Z,1.27
2023-04-04T10:38:43.724Z,1.00
2023-04-04T10:40:26.151Z,0.70
2023-04-04T10:41:32.693Z,0.90
2023-04-04T10:42:44.175Z,1.00
2023-04-04T10:43:49.655Z,0.90
2023-04-04T10:44:51.675Z,0.97
2023-04-04T10:45:55.478Z,0.63
2023-04-04T10:47:04.295Z,0.60
2023-04-04T10:48:10.231Z,0.67
2023-04-04T10:49:13.389Z,0.70
2023-04-04T10:50:15.740Z,0.70
2023-04-04T10:51:17.982Z,0.90
2023-04-04T10:52:23.545Z,0.87
2023-04-04T10:53:27.037Z,0.90
2023-04-04T10:54:30.231Z,0.93
2023-04-04T10:55:33.661Z,0.80
2023-04-04T10:56:36.763Z,0.80
2023-04-04T10:57:47.483Z,0.80
2023-04-04T10:58:49.985Z,0.90
2023-04-04T11:00:09.934Z,0.87
2023-04-04T11:01:16.394Z,0.70
2023-04-04T11:02:18.818Z,1.07
2023-04-04T11:03:21.243Z,0.77
2023-04-04T11:04:39.162Z,1.03
2023-04-04T11:05:43.396Z,1.23
2023-04-04T11:07:10.253Z,1.00
2023-04-04T11:08:17.082Z,1.10
2023-04-04T11:09:47.080Z,1.03
2023-04-04T11:10:51.081Z,1.00
2023-04-04T11:12:10.620Z,0.70
2023-04-04T11:13:26.437Z,0.70
2023-04-04T11:14:31.805Z,1.00
2023-04-04T11:16:07.338Z,0.93
2023-04-04T11:17:09.870Z,0.80
2023-04-04T11:18:30.121Z,0.90
2023-04-04T11:19:34.307Z,1.30
2023-04-04T11:20:38.921Z,0.73
2023-04-04T11:21:41.588Z,0.70
2023-04-04T11:22:43.842Z,0.70
2023-04-04T11:23:48.644Z,0.63
2023-04-04T11:25:01.436Z,0.80
2023-04-04T11:26:03.568Z,0.80
2023-04-04T11:27:07.912Z,0.77
2023-04-04T11:28:28.046Z,0.77
2023-04-04T11:29:52.424Z,1.00
2023-04-04T11:31:20.352Z,0.97
2023-04-04T11:32:52.951Z,0.90
2023-04-04T11:34:08.000Z,0.60
2023-04-04T11:35:10.348Z,0.90
2023-04-04T11:36:45.751Z,0.73
2023-04-04T11:37:56.954Z,1.40
2023-04-04T11:38:59.952Z,0.80
2023-04-04T11:40:15.931Z,1.00
2023-04-04T11:41:20.494Z,0.93
2023-04-04T11:42:27.693Z,0.77
2023-04-04T11:43:36.564Z,0.70
2023-04-04T11:44:54.886Z,0.83
2023-04-04T11:46:08.131Z,0.70
2023-04-04T11:47:12.135Z,0.73
2023-04-04T11:48:19.888Z,0.90
2023-04-04T11:49:29.681Z,0.70
2023-04-04T11:50:42.299Z,0.73
2023-04-04T11:51:45.814Z,0.80
2023-04-04T11:52:47.684Z,1.10
2023-04-04T11:53:49.490Z,0.83
2023-04-04T11:54:52.517Z,0.60
2023-04-04T11:55:56.506Z,0.60
2023-04-04T11:56:58.900Z,0.80
2023-04-04T11:58:13.521Z,0.80
2023-04-04T11:59:21.087Z,0.70
2023-04-04T12:00:39.819Z,0.80
2023-04-04T12:01:41.769Z,1.10
2023-04-04T12:02:44.396Z,0.80
2023-04-04T12:03:48.854Z,1.10
2023-04-04T12:04:52.448Z,1.70
2023-04-04T12:05:54.410Z,1.53
2023-04-04T12:06:56.813Z,1.80
2023-04-04T12:08:01.840Z,1.57
2023-04-04T12:09:05.703Z,1.73
2023-04-04T12:10:09.038Z,1.70
2023-04-04T12:11:16.340Z,1.70
2023-04-04T12:12:18.412Z,1.88
2023-04-04T12:13:20.234Z,2.13
2023-04-04T12:14:24.175Z,1.83
2023-04-04T12:15:29.642Z,1.80
2023-04-04T12:16:31.572Z,1.90
2023-04-04T12:17:34.569Z,1.88
2023-04-04T12:18:37.351Z,1.70
2023-04-04T12:19:41.274Z,1.90
2023-04-04T12:20:48.839Z,2.10
2023-04-04T12:21:53.364Z,1.63
2023-04-04T12:22:55.152Z,1.40
2023-04-04T12:23:57.627Z,1.63
2023-04-04T12:24:59.567Z,1.60
2023-04-04T12:26:03.976Z,1.70
2023-04-04T12:27:06.704Z,1.90
2023-04-04T12:28:09.202Z,1.50
2023-04-04T12:29:13.754Z,1.80
2023-04-04T12:30:17.779Z,1.80
2023-04-04T12:31:19.969Z,1.40
2023-04-04T12:32:23.190Z,1.90
2023-04-04T12:33:25.816Z,1.58
2023-04-04T12:34:34.424Z,1.87
2023-04-04T12:35:37.712Z,1.48
2023-04-04T12:36:41.298Z,1.67
2023-04-04T12:38:10.734Z,1.75
2023-04-04T12:39:13.918Z,1.50
2023-04-04T12:40:15.752Z,1.40
2023-04-04T12:41:19.516Z,1.53
2023-04-04T12:42:25.968Z,1.52
2023-04-04T12:43:29.945Z,1.43
2023-04-04T12:44:37.725Z,1.80
2023-04-04T12:45:41.020Z,1.30
2023-04-04T12:46:44.835Z,1.67
2023-04-04T12:47:56.971Z,1.27
2023-04-04T12:48:59.845Z,1.60
2023-04-04T12:50:04.586Z,1.75
2023-04-04T12:51:08.981Z,1.33
2023-04-04T12:52:32.007Z,1.70
2023-04-04T12:53:34.047Z,1.23
2023-04-04T12:54:39.957Z,1.70
2023-04-04T12:55:47.959Z,1.60
2023-04-04T12:56:58.392Z,1.50
2023-04-04T12:58:02.561Z,1.48
2023-04-04T12:59:08.275Z,1.55
2023-04-04T13:00:14.294Z,1.70
2023-04-04T13:01:21.999Z,1.60
2023-04-04T13:02:24.839Z,1.42
2023-04-04T13:03:29.369Z,1.15
2023-04-04T13:04:33.342Z,1.50
2023-04-04T13:05:36.735Z,1.50
2023-04-04T13:06:39.450Z,1.70
2023-04-04T13:07:44.503Z,1.40
2023-04-04T13:08:54.410Z,1.27
2023-04-04T13:10:05.514Z,1.60
2023-04-04T13:11:07.708Z,1.20
2023-04-04T13:12:09.758Z,1.37
2023-04-04T13:13:40.709Z,1.50
2023-04-04T13:15:07.142Z,1.45
2023-04-04T13:16:11.573Z,2.05
2023-04-04T13:17:14.211Z,1.30
2023-04-04T13:18:29.599Z,1.48
2023-04-04T13:19:32.014Z,1.13
2023-04-04T13:20:34.091Z,1.70
2023-04-04T13:21:38.306Z,1.80
2023-04-04T13:22:41.842Z,1.23
2023-04-04T13:23:44.052Z,1.20
2023-04-04T13:24:47.168Z,1.10
2023-04-04T13:25:53.118Z,1.30
2023-04-04T13:26:54.889Z,1.30
2023-04-04T13:27:56.820Z,1.40
2023-04-04T13:28:58.775Z,1.17
2023-04-04T13:30:02.735Z,1.30
2023-04-04T13:31:10.188Z,1.48
2023-04-04T13:32:13.156Z,1.25
2023-04-04T13:33:27.001Z,1.10
2023-04-04T13:34:28.934Z,1.30
2023-04-04T13:35:34.197Z,1.23
2023-04-04T13:36:36.132Z,1.23
2023-04-04T13:37:39.639Z,1.40
2023-04-04T13:38:41.605Z,1.40
2023-04-04T13:39:43.632Z,1.50
2023-04-04T13:40:45.838Z,1.45
2023-04-04T13:41:47.779Z,1.60
2023-04-04T13:42:51.018Z,1.20
2023-04-04T13:43:52.912Z,1.37
2023-04-04T13:44:56.237Z,1.40
2023-04-04T13:45:58.165Z,1.20
2023-04-04T13:47:00.042Z,2.33
2023-04-04T13:48:03.941Z,1.30
2023-04-04T13:49:05.983Z,1.30
2023-04-04T13:50:08.579Z,1.27
2023-04-04T13:51:10.633Z,1.30
2023-04-04T13:52:12.441Z,1.30
2023-04-04T13:53:14.295Z,1.40
2023-04-04T13:54:16.159Z,1.50
2023-04-04T13:55:18.483Z,1.10
2023-04-04T13:56:21.104Z,1.30
2023-04-04T13:57:23.315Z,1.20
2023-04-04T13:58:27.411Z,1.17
2023-04-04T13:59:29.389Z,1.80
2023-04-04T14:00:33.198Z,1.87
2023-04-04T14:01:35.153Z,1.60
2023-04-04T14:02:37.199Z,1.50
2023-04-04T14:03:39.117Z,1.50
2023-04-04T14:04:41.071Z,1.37
2023-04-04T14:05:43.329Z,1.52
2023-04-04T14:06:47.113Z,1.30
2023-04-04T14:07:49.206Z,1.42
2023-04-04T14:08:51.743Z,1.30
2023-04-04T14:09:53.547Z,1.33
2023-04-04T14:10:55.680Z,1.43
2023-04-04T14:11:57.577Z,1.00
2023-04-04T14:12:59.471Z,0.90
2023-04-04T14:14:01.291Z,1.30
2023-04-04T14:15:03.552Z,1.23
2023-04-04T14:16:08.212Z,1.33
2023-04-04T14:17:10.179Z,1.10
2023-04-04T14:18:12.524Z,1.38